Time;durP1;ratioP1;P1;durP2;ratioP2;P2;SDS_P1;SDS_P2;PMS_P1;PMS_P2;Temp;Humidity;BMP_temperature;BMP_pressure;BME280_temperature;BME280_humidity;BME280_pressure;Samples;Min_cycle;Max_cycle;Signal;HPM_P1;HPM_P2
2022/06/15 00:01:38;;;;;;;10.73;7.63;;;;;;;;;;5065360;28;20028;-70
2022/06/15 00:04:04;;;;;;;9.63;7.60;;;;;;;;;;5062835;28;20032;-70
2022/06/15 00:06:32;;;;;;;8.93;7.57;;;;;;;;;;5065991;28;20221;-70
2022/06/15 00:08:58;;;;;;;8.98;7.70;;;;;;;;;;5064432;28;20021;-70
2022/06/15 00:11:28;;;;;;;10.15;7.15;;;;;;;;;;5065239;28;20031;-70
2022/06/15 00:13:55;;;;;;;9.38;7.47;;;;;;;;;;5058795;28;20488;-70
2022/06/15 00:16:22;;;;;;;8.35;7.25;;;;;;;;;;5061739;28;20028;-70
2022/06/15 00:18:48;;;;;;;8.60;7.70;;;;;;;;;;5063372;28;20031;-70
2022/06/15 00:21:15;;;;;;;9.30;7.38;;;;;;;;;;5061857;28;20071;-70
2022/06/15 00:23:41;;;;;;;10.70;7.50;;;;;;;;;;5056687;28;20033;-69
2022/06/15 00:26:08;;;;;;;10.30;6.88;;;;;;;;;;5064558;28;20039;-70
2022/06/15 00:28:34;;;;;;;9.93;7.65;;;;;;;;;;5059183;28;20434;-70
2022/06/15 00:31:01;;;;;;;12.05;7.25;;;;;;;;;;5062883;28;20078;-70
2022/06/15 00:33:28;;;;;;;9.45;6.65;;;;;;;;;;5065164;28;20085;-69
2022/06/15 00:36:01;;;;;;;8.30;6.75;;;;;;;;;;5063928;28;20024;-70
2022/06/15 00:38:29;;;;;;;7.55;6.72;;;;;;;;;;5058938;28;20173;-70
2022/06/15 00:40:56;;;;;;;7.20;6.43;;;;;;;;;;5058807;28;20050;-70
2022/06/15 00:43:31;;;;;;;8.45;6.35;;;;;;;;;;5059293;28;20027;-70
2022/06/15 00:45:58;;;;;;;6.78;5.93;;;;;;;;;;5061443;28;20023;-69
2022/06/15 00:48:24;;;;;;;6.18;5.55;;;;;;;;;;5046295;28;20025;-69
2022/06/15 00:50:51;;;;;;;9.23;6.30;;;;;;;;;;5055121;28;20074;-69
2022/06/15 00:53:17;;;;;;;6.32;5.72;;;;;;;;;;5048040;28;20024;-70
2022/06/15 00:55:43;;;;;;;5.85;5.25;;;;;;;;;;5053425;28;20036;-69
2022/06/15 00:58:10;;;;;;;6.78;5.40;;;;;;;;;;5058146;28;20070;-70
2022/06/15 01:00:36;;;;;;;6.85;6.05;;;;;;;;;;5040819;28;20056;-70
2022/06/15 01:03:03;;;;;;;6.60;5.93;;;;;;;;;;5057839;28;20024;-70
2022/06/15 01:05:38;;;;;;;8.77;6.15;;;;;;;;;;5056517;28;20020;-70
2022/06/15 01:08:27;;;;;;;7.50;6.50;;;;;;;;;;5060140;28;20480;-70
2022/06/15 01:11:16;;;;;;;6.82;6.13;;;;;;;;;;5042591;28;20044;-69
2022/06/15 01:13:42;;;;;;;8.10;5.50;;;;;;;;;;5052310;28;20033;-70
2022/06/15 01:16:14;;;;;;;8.80;5.32;;;;;;;;;;5050285;28;20021;-69
2022/06/15 01:18:45;;;;;;;5.85;5.10;;;;;;;;;;5056918;28;20410;-70
2022/06/15 01:21:30;;;;;;;6.22;5.43;;;;;;;;;;5061447;28;20025;-70
2022/06/15 01:23:56;;;;;;;7.10;6.20;;;;;;;;;;5058843;28;20036;-70
2022/06/15 01:26:41;;;;;;;7.05;5.75;;;;;;;;;;5063894;28;20029;-70
2022/06/15 01:29:07;;;;;;;6.32;5.53;;;;;;;;;;5052803;28;20074;-70
2022/06/15 01:31:41;;;;;;;11.15;5.80;;;;;;;;;;5058011;28;20025;-70
2022/06/15 01:34:10;;;;;;;8.05;5.45;;;;;;;;;;5056034;28;20188;-70
2022/06/15 01:36:36;;;;;;;6.10;5.50;;;;;;;;;;5060410;28;20024;-70
2022/06/15 01:39:24;;;;;;;7.07;6.22;;;;;;;;;;5058322;28;20514;-69
2022/06/15 01:41:56;;;;;;;6.18;5.53;;;;;;;;;;5051671;28;20478;-70
2022/06/15 01:44:28;;;;;;;9.45;5.47;;;;;;;;;;5056565;28;20102;-70
2022/06/15 01:46:54;;;;;;;7.45;5.07;;;;;;;;;;5050491;28;20033;-69
2022/06/15 01:49:23;;;;;;;6.82;5.60;;;;;;;;;;5056540;28;20613;-70
2022/06/15 01:51:51;;;;;;;6.70;5.40;;;;;;;;;;5055979;28;20491;-70
2022/06/15 01:54:21;;;;;;;6.68;5.15;;;;;;;;;;5060283;28;20120;-69
2022/06/15 01:56:48;;;;;;;5.32;4.07;;;;;;;;;;5056306;28;20071;-70
2022/06/15 01:59:15;;;;;;;4.82;4.35;;;;;;;;;;5059618;28;20044;-69
2022/06/15 02:01:59;;;;;;;4.55;4.15;;;;;;;;;;5057042;28;20033;-70
2022/06/15 02:04:42;;;;;;;6.25;5.43;;;;;;;;;;5056519;28;20033;-70
2022/06/15 02:07:26;;;;;;;5.32;4.70;;;;;;;;;;5058854;28;20104;-70
2022/06/15 02:10:06;;;;;;;4.65;4.25;;;;;;;;;;5062844;28;20028;-70
2022/06/15 02:12:36;;;;;;;5.30;4.80;;;;;;;;;;5057111;28;20059;-70
2022/06/15 02:15:04;;;;;;;5.20;4.70;;;;;;;;;;5057872;28;20039;-70
2022/06/15 02:17:32;;;;;;;4.45;4.05;;;;;;;;;;5059038;28;20036;-69
2022/06/15 02:20:04;;;;;;;4.53;4.10;;;;;;;;;;5052968;28;20020;-70
2022/06/15 02:22:32;;;;;;;4.78;4.38;;;;;;;;;;5053757;28;20024;-70
2022/06/15 02:25:00;;;;;;;4.45;4.05;;;;;;;;;;5057181;28;20054;-69
2022/06/15 02:27:29;;;;;;;5.32;4.30;;;;;;;;;;5059222;28;20017;-69
2022/06/15 02:29:59;;;;;;;4.50;4.10;;;;;;;;;;5061109;28;20020;-69
2022/06/15 02:32:26;;;;;;;5.63;5.07;;;;;;;;;;5061358;28;20032;-69
2022/06/15 02:34:52;;;;;;;5.80;4.80;;;;;;;;;;5062393;28;20041;-69
2022/06/15 02:37:18;;;;;;;5.20;4.70;;;;;;;;;;5063594;28;20016;-70
2022/06/15 02:39:44;;;;;;;4.80;4.32;;;;;;;;;;5062289;28;20044;-70
2022/06/15 02:42:30;;;;;;;5.40;4.88;;;;;;;;;;5059773;28;20029;-70
2022/06/15 02:44:58;;;;;;;11.05;5.10;;;;;;;;;;5052228;28;20029;-70
2022/06/15 02:47:26;;;;;;;6.30;5.40;;;;;;;;;;5056970;28;20379;-70
2022/06/15 02:49:53;;;;;;;6.68;5.68;;;;;;;;;;5049395;28;20021;-70
2022/06/15 02:52:21;;;;;;;5.93;5.32;;;;;;;;;;5059645;28;20543;-70
2022/06/15 02:54:52;;;;;;;9.48;6.25;;;;;;;;;;5060666;28;20025;-70
2022/06/15 02:57:18;;;;;;;10.43;5.80;;;;;;;;;;5063064;28;20016;-69
2022/06/15 02:59:45;;;;;;;8.10;6.65;;;;;;;;;;5058611;28;20021;-70
2022/06/15 03:02:14;;;;;;;7.75;6.93;;;;;;;;;;5055685;28;20025;-70
2022/06/15 03:04:43;;;;;;;7.63;6.75;;;;;;;;;;5060042;28;20028;-70
2022/06/15 03:07:11;;;;;;;8.73;6.90;;;;;;;;;;5064114;28;20063;-70
2022/06/15 03:09:37;;;;;;;8.02;6.55;;;;;;;;;;5062683;28;20387;-70
2022/06/15 03:12:03;;;;;;;6.35;5.75;;;;;;;;;;5062768;28;20012;-70
2022/06/15 03:14:30;;;;;;;6.55;5.85;;;;;;;;;;5064401;28;20098;-70
2022/06/15 03:16:57;;;;;;;7.05;5.65;;;;;;;;;;5061999;28;20916;-70
2022/06/15 03:19:23;;;;;;;5.28;4.78;;;;;;;;;;5062891;28;20541;-70
2022/06/15 03:21:49;;;;;;;7.05;5.57;;;;;;;;;;5062192;28;20024;-70
2022/06/15 03:24:15;;;;;;;7.25;5.47;;;;;;;;;;5060481;28;20673;-69
2022/06/15 03:26:41;;;;;;;6.65;5.60;;;;;;;;;;5061615;28;20697;-70
2022/06/15 03:29:07;;;;;;;5.55;4.90;;;;;;;;;;5061785;28;20417;-70
2022/06/15 03:31:33;;;;;;;5.03;4.55;;;;;;;;;;5061173;28;20036;-70
2022/06/15 03:34:00;;;;;;;5.57;4.50;;;;;;;;;;5059821;28;20040;-70
2022/06/15 03:36:26;;;;;;;4.70;4.20;;;;;;;;;;5061836;28;20028;-69
2022/06/15 03:38:52;;;;;;;5.07;3.78;;;;;;;;;;5061262;28;20048;-70
2022/06/15 03:41:20;;;;;;;5.45;3.65;;;;;;;;;;5059954;28;20029;-70
2022/06/15 03:43:46;;;;;;;4.68;3.90;;;;;;;;;;5061662;28;20085;-70
2022/06/15 03:46:13;;;;;;;4.78;3.83;;;;;;;;;;5061795;28;20028;-70
2022/06/15 03:48:39;;;;;;;4.22;3.83;;;;;;;;;;5061331;28;20094;-70
2022/06/15 03:51:05;;;;;;;14.48;4.57;;;;;;;;;;5061548;28;20059;-70
2022/06/15 03:53:31;;;;;;;4.22;3.83;;;;;;;;;;5060908;28;20032;-70
2022/06/15 03:55:57;;;;;;;4.50;3.72;;;;;;;;;;5059889;28;20578;-70
2022/06/15 03:58:24;;;;;;;4.88;4.35;;;;;;;;;;5061306;28;20098;-69
2022/06/15 04:00:50;;;;;;;4.50;4.10;;;;;;;;;;5043303;28;20074;-70
2022/06/15 04:03:16;;;;;;;4.28;3.72;;;;;;;;;;5059034;28;20024;-70
2022/06/15 04:05:44;;;;;;;6.20;4.28;;;;;;;;;;5060500;28;20021;-70
2022/06/15 04:08:37;;;;;;;4.32;4.00;;;;;;;;;;5059324;28;20488;-70
2022/06/15 04:11:04;;;;;;;4.90;4.10;;;;;;;;;;5061149;28;20075;-70
2022/06/15 04:13:31;;;;;;;4.90;3.90;;;;;;;;;;5059561;28;20040;-69
2022/06/15 04:15:57;;;;;;;6.13;3.75;;;;;;;;;;5060187;28;20377;-70
2022/06/15 04:18:23;;;;;;;5.15;4.57;;;;;;;;;;5060929;28;20127;-70
2022/06/15 04:20:49;;;;;;;5.18;4.20;;;;;;;;;;5060998;28;20021;-70
2022/06/15 04:23:16;;;;;;;4.55;4.07;;;;;;;;;;5059191;28;20066;-70
2022/06/15 04:25:54;;;;;;;4.93;4.38;;;;;;;;;;5060796;28;20089;-70
2022/06/15 04:28:21;;;;;;;5.28;4.75;;;;;;;;;;5060090;28;20020;-70
2022/06/15 04:30:47;;;;;;;13.38;9.43;;;;;;;;;;5060782;28;20535;-70
2022/06/15 04:33:14;;;;;;;52.45;40.95;;;;;;;;;;5060310;28;20036;-70
2022/06/15 04:35:41;;;;;;;66.35;53.20;;;;;;;;;;5060472;28;20020;-69
2022/06/15 04:38:07;;;;;;;75.53;60.58;;;;;;;;;;5058714;28;20792;-71
2022/06/15 04:40:34;;;;;;;64.32;50.85;;;;;;;;;;5060119;28;20942;-71
2022/06/15 04:43:00;;;;;;;15.05;13.10;;;;;;;;;;5060319;28;20067;-71
2022/06/15 04:45:27;;;;;;;13.00;8.75;;;;;;;;;;5059936;28;20016;-71
2022/06/15 04:47:53;;;;;;;15.23;8.00;;;;;;;;;;5058770;28;20028;-71
2022/06/15 04:50:19;;;;;;;7.85;6.53;;;;;;;;;;5060103;28;20031;-71
2022/06/15 04:52:46;;;;;;;7.97;6.65;;;;;;;;;;5059539;28;20441;-71
2022/06/15 04:55:14;;;;;;;11.40;8.43;;;;;;;;;;5060147;28;20369;-72
2022/06/15 04:57:40;;;;;;;14.45;9.45;;;;;;;;;;5058468;28;20024;-71
2022/06/15 05:00:08;;;;;;;15.23;10.85;;;;;;;;;;5059781;28;20709;-71
2022/06/15 05:02:34;;;;;;;12.40;9.20;;;;;;;;;;5059706;28;20036;-71
2022/06/15 05:05:01;;;;;;;15.95;11.07;;;;;;;;;;5059423;28;20025;-72
2022/06/15 05:07:27;;;;;;;16.00;11.32;;;;;;;;;;5052907;28;20035;-71
2022/06/15 05:09:53;;;;;;;16.33;11.15;;;;;;;;;;5057026;28;20024;-71
2022/06/15 05:12:20;;;;;;;16.35;10.93;;;;;;;;;;5056802;28;20021;-71
2022/06/15 05:14:47;;;;;;;14.82;12.75;;;;;;;;;;5058014;28;20464;-71
2022/06/15 05:17:17;;;;;;;24.08;17.15;;;;;;;;;;5056762;28;20656;-71
2022/06/15 05:19:43;;;;;;;26.50;18.13;;;;;;;;;;5057891;28;20032;-71
2022/06/15 05:22:09;;;;;;;29.83;19.20;;;;;;;;;;5059841;28;20029;-71
2022/06/15 05:24:36;;;;;;;31.40;18.25;;;;;;;;;;5057863;28;20522;-72
2022/06/15 05:27:02;;;;;;;25.98;16.65;;;;;;;;;;5059496;28;20028;-72
2022/06/15 05:29:28;;;;;;;22.23;15.07;;;;;;;;;;5059184;28;20024;-71
2022/06/15 05:31:54;;;;;;;23.60;15.55;;;;;;;;;;5058181;28;20028;-71
2022/06/15 05:34:21;;;;;;;19.90;15.65;;;;;;;;;;5058921;28;20070;-71
2022/06/15 05:36:47;;;;;;;21.52;14.27;;;;;;;;;;5059222;28;20113;-71
2022/06/15 05:39:13;;;;;;;17.70;12.68;;;;;;;;;;5059422;28;20044;-72
2022/06/15 05:41:40;;;;;;;14.27;12.57;;;;;;;;;;5051954;28;20074;-72
2022/06/15 05:46:34;;;;;;;15.88;11.07;;;;;;;;;;5059090;28;20895;-71
2022/06/15 05:49:01;;;;;;;19.13;10.70;;;;;;;;;;5061483;28;20078;-71
2022/06/15 05:51:27;;;;;;;14.63;9.88;;;;;;;;;;5061795;28;20021;-71
2022/06/15 05:53:54;;;;;;;12.95;9.85;;;;;;;;;;5059847;28;20029;-71
2022/06/15 05:56:20;;;;;;;18.00;12.55;;;;;;;;;;5061229;28;20060;-70
2022/06/15 05:58:47;;;;;;;14.75;11.55;;;;;;;;;;5061143;28;20040;-72
2022/06/15 06:01:27;;;;;;;15.25;12.57;;;;;;;;;;5063497;28;20025;-71
2022/06/15 06:03:54;;;;;;;22.65;12.18;;;;;;;;;;5078471;28;20020;-74
2022/06/15 06:06:20;;;;;;;15.45;11.50;;;;;;;;;;5073742;28;20017;-71
2022/06/15 06:08:46;;;;;;;22.48;11.27;;;;;;;;;;5078340;28;20128;-69
2022/06/15 06:11:13;;;;;;;18.27;10.88;;;;;;;;;;5068369;28;20060;-69
2022/06/15 06:13:40;;;;;;;18.15;11.73;;;;;;;;;;5072866;28;20043;-69
2022/06/15 06:16:06;;;;;;;24.73;12.10;;;;;;;;;;5076584;28;20066;-70
2022/06/15 06:18:32;;;;;;;18.58;11.27;;;;;;;;;;5075537;28;20550;-73
2022/06/15 06:20:59;;;;;;;14.25;10.55;;;;;;;;;;5078676;28;20027;-70
2022/06/15 06:23:25;;;;;;;19.98;11.43;;;;;;;;;;5059976;28;20476;-68
2022/06/15 06:25:52;;;;;;;20.88;12.32;;;;;;;;;;5061739;28;20028;-70
2022/06/15 06:28:24;;;;;;;22.52;11.45;;;;;;;;;;5062590;28;20028;-70
2022/06/15 06:30:50;;;;;;;24.00;10.68;;;;;;;;;;5065612;28;20032;-70
2022/06/15 06:33:17;;;;;;;17.25;8.80;;;;;;;;;;5064045;28;20086;-70
2022/06/15 06:35:43;;;;;;;11.18;7.28;;;;;;;;;;5063774;28;20029;-72
2022/06/15 06:38:11;;;;;;;19.63;8.82;;;;;;;;;;5066396;28;20135;-71
2022/06/15 06:40:37;;;;;;;12.05;8.60;;;;;;;;;;5066772;28;20404;-70
2022/06/15 06:43:04;;;;;;;11.27;8.93;;;;;;;;;;5065679;28;20020;-70
2022/06/15 06:45:30;;;;;;;11.70;9.15;;;;;;;;;;5062750;28;20033;-70
2022/06/15 06:47:56;;;;;;;12.57;8.55;;;;;;;;;;5064450;28;20043;-72
2022/06/15 06:50:23;;;;;;;10.68;6.20;;;;;;;;;;5065083;28;20029;-70
2022/06/15 06:52:49;;;;;;;6.72;5.28;;;;;;;;;;5058012;28;20025;-72
2022/06/15 06:55:16;;;;;;;6.50;5.65;;;;;;;;;;5047972;28;20037;-70
2022/06/15 06:57:42;;;;;;;5.10;4.60;;;;;;;;;;5056553;28;20036;-71
2022/06/15 07:00:09;;;;;;;29.25;19.45;;;;;;;;;;5062064;28;20032;-71
2022/06/15 07:02:35;;;;;;;35.00;23.85;;;;;;;;;;5063137;28;20028;-71
2022/06/15 07:05:01;;;;;;;10.90;8.10;;;;;;;;;;5061098;28;20524;-71
2022/06/15 07:07:27;;;;;;;11.40;9.25;;;;;;;;;;5054399;28;20037;-73
2022/06/15 07:09:53;;;;;;;5.78;4.95;;;;;;;;;;5051755;28;20021;-71
2022/06/15 07:12:20;;;;;;;17.75;9.70;;;;;;;;;;5053722;28;20049;-70
2022/06/15 07:14:50;;;;;;;25.85;16.77;;;;;;;;;;5047848;28;20033;-71
2022/06/15 07:17:17;;;;;;;28.15;25.30;;;;;;;;;;5051430;28;20020;-71
2022/06/15 07:19:43;;;;;;;10.55;8.23;;;;;;;;;;5063368;28;20492;-70
2022/06/15 07:22:09;;;;;;;9.70;4.70;;;;;;;;;;5052779;28;20046;-70
2022/06/15 07:24:36;;;;;;;4.82;4.43;;;;;;;;;;5059348;28;20115;-71
2022/06/15 07:27:02;;;;;;;4.60;4.20;;;;;;;;;;5064146;28;20119;-70
2022/06/15 07:29:28;;;;;;;6.97;5.53;;;;;;;;;;5050881;28;20364;-71
2022/06/15 07:31:55;;;;;;;9.15;5.63;;;;;;;;;;5045527;28;20399;-71
2022/06/15 07:34:22;;;;;;;9.93;5.32;;;;;;;;;;5057990;28;20037;-71
2022/06/15 07:36:48;;;;;;;6.40;5.38;;;;;;;;;;5055000;28;20025;-72
2022/06/15 07:39:16;;;;;;;5.63;5.13;;;;;;;;;;5057067;28;20068;-73
2022/06/15 07:41:42;;;;;;;7.07;5.40;;;;;;;;;;5065001;28;20572;-74
2022/06/15 07:44:08;;;;;;;7.60;5.15;;;;;;;;;;5061834;28;20028;-75
2022/06/15 07:46:35;;;;;;;7.93;5.90;;;;;;;;;;5063740;28;20555;-74
2022/06/15 07:51:50;;;;;;;6.18;5.15;;;;;;;;;;5065070;28;20112;-73
2022/06/15 07:54:17;;;;;;;6.78;5.60;;;;;;;;;;5063769;28;20036;-73
2022/06/15 07:56:43;;;;;;;5.25;4.78;;;;;;;;;;5044502;28;20108;-73
2022/06/15 07:59:09;;;;;;;5.95;5.30;;;;;;;;;;5063855;28;20397;-73
2022/06/15 08:01:36;;;;;;;6.65;5.05;;;;;;;;;;5066802;28;20024;-73
2022/06/15 08:04:03;;;;;;;10.85;6.15;;;;;;;;;;5064404;28;20529;-73
2022/06/15 08:06:30;;;;;;;7.88;6.00;;;;;;;;;;5069941;28;20107;-74
2022/06/15 08:08:57;;;;;;;8.43;5.65;;;;;;;;;;5072556;28;20037;-77
2022/06/15 08:11:23;;;;;;;9.65;6.63;;;;;;;;;;5064361;28;20025;-77
2022/06/15 08:13:50;;;;;;;6.63;6.00;;;;;;;;;;5064476;28;20033;-75
2022/06/15 08:16:17;;;;;;;12.52;5.32;;;;;;;;;;5044978;28;20020;-75
2022/06/15 08:18:49;;;;;;;6.57;5.88;;;;;;;;;;5064263;28;20101;-78
2022/06/15 08:21:36;;;;;;;6.03;5.40;;;;;;;;;;5060651;28;20059;-73
2022/06/15 08:24:02;;;;;;;7.50;5.80;;;;;;;;;;5062793;28;20055;-74
2022/06/15 08:26:31;;;;;;;6.70;5.95;;;;;;;;;;5062667;28;20480;-74
2022/06/15 08:28:59;;;;;;;6.78;6.00;;;;;;;;;;5045620;28;20043;-74
2022/06/15 08:31:25;;;;;;;9.82;5.70;;;;;;;;;;5061289;28;20033;-73
2022/06/15 08:33:52;;;;;;;7.07;5.70;;;;;;;;;;5074809;28;20036;-74
2022/06/15 08:36:18;;;;;;;6.53;5.80;;;;;;;;;;5059764;28;20532;-75
2022/06/15 08:38:44;;;;;;;6.75;5.93;;;;;;;;;;5062068;28;20552;-75
2022/06/15 08:41:23;;;;;;;7.00;5.80;;;;;;;;;;5060588;28;20024;-77
2022/06/15 08:44:22;;;;;;;10.18;5.50;;;;;;;;;;5062426;28;20024;-74
2022/06/15 08:50:02;;;;;;;9.10;5.40;;;;;;;;;;5007722;28;20952;-75
2022/06/15 08:52:33;;;;;;;9.25;6.15;;;;;;;;;;5063360;28;20100;-73
2022/06/15 08:55:05;;;;;;;9.30;5.88;;;;;;;;;;5062167;28;20140;-73
2022/06/15 08:57:34;;;;;;;8.48;5.78;;;;;;;;;;5063247;28;20030;-73
2022/06/15 09:00:05;;;;;;;6.28;4.97;;;;;;;;;;5063568;28;20665;-73
2022/06/15 09:02:36;;;;;;;7.68;5.07;;;;;;;;;;5061919;28;20012;-75
2022/06/15 09:05:21;;;;;;;5.07;4.57;;;;;;;;;;5063784;28;20406;-76
2022/06/15 09:07:47;;;;;;;5.88;4.60;;;;;;;;;;5062283;28;20469;-73
2022/06/15 09:10:24;;;;;;;6.60;4.57;;;;;;;;;;5063896;28;20032;-73
2022/06/15 09:12:59;;;;;;;5.15;4.50;;;;;;;;;;5061628;28;20248;-76
2022/06/15 09:15:45;;;;;;;6.28;4.28;;;;;;;;;;5067744;28;20036;-74
2022/06/15 09:18:25;;;;;;;6.03;4.15;;;;;;;;;;5045545;28;20024;-74
2022/06/15 09:20:54;;;;;;;4.13;3.65;;;;;;;;;;5067693;28;20020;-73
2022/06/15 09:23:24;;;;;;;9.10;5.13;;;;;;;;;;5061563;28;20126;-75
2022/06/15 09:25:55;;;;;;;7.78;3.90;;;;;;;;;;5053314;28;20060;-73
2022/06/15 09:28:26;;;;;;;4.32;3.83;;;;;;;;;;5054783;28;20195;-73
2022/06/15 09:30:53;;;;;;;3.90;3.60;;;;;;;;;;5060922;28;20248;-72
2022/06/15 09:33:19;;;;;;;6.40;3.90;;;;;;;;;;5063753;28;20384;-71
2022/06/15 09:35:52;;;;;;;4.88;4.28;;;;;;;;;;5058962;28;20475;-71
2022/06/15 09:38:18;;;;;;;7.55;4.28;;;;;;;;;;5040192;28;20194;-67
2022/06/15 09:40:49;;;;;;;6.90;4.40;;;;;;;;;;5043029;28;20025;-69
2022/06/15 09:43:37;;;;;;;8.38;3.95;;;;;;;;;;5042599;28;20064;-74
2022/06/15 09:46:06;;;;;;;6.70;4.55;;;;;;;;;;5033206;28;20036;-71
2022/06/15 09:48:40;;;;;;;9.63;4.03;;;;;;;;;;5039815;28;20029;-71
2022/06/15 09:51:20;;;;;;;5.35;3.90;;;;;;;;;;5041161;28;20120;-68
2022/06/15 09:54:05;;;;;;;4.45;3.67;;;;;;;;;;5041356;28;20021;-69
2022/06/15 09:56:31;;;;;;;5.32;3.90;;;;;;;;;;5043364;28;20056;-69
2022/06/15 09:59:01;;;;;;;7.13;3.70;;;;;;;;;;5041117;28;20029;-71
2022/06/15 10:01:30;;;;;;;4.78;3.67;;;;;;;;;;5036311;28;20025;-69
2022/06/15 10:03:57;;;;;;;5.25;3.55;;;;;;;;;;5044263;28;20405;-69
2022/06/15 10:06:39;;;;;;;5.47;4.10;;;;;;;;;;5046058;28;20131;-70
2022/06/15 10:09:05;;;;;;;;;;;;;;;;;;5044822;28;20037;-69
2022/06/15 10:11:36;;;;;;;4.10;3.70;;;;;;;;;;5044408;28;20324;-70
2022/06/15 10:14:18;;;;;;;11.38;3.88;;;;;;;;;;5045005;28;20047;-69
2022/06/15 10:16:44;;;;;;;;;;;;;;;;;;5049524;28;20056;-70
2022/06/15 10:19:13;;;;;;;5.68;3.50;;;;;;;;;;5040988;28;19963;-69
2022/06/15 10:21:40;;;;;;;4.15;3.50;;;;;;;;;;5047202;28;20036;-71
2022/06/15 10:24:08;;;;;;;6.20;4.55;;;;;;;;;;5046806;28;20094;-71
2022/06/15 10:26:42;;;;;;;4.65;4.10;;;;;;;;;;5043899;28;20033;-70
2022/06/15 10:29:14;;;;;;;4.55;4.15;;;;;;;;;;5045443;28;20034;-69
2022/06/15 10:31:41;;;;;;;9.13;4.13;;;;;;;;;;5044073;28;20037;-69
2022/06/15 10:34:19;;;;;;;3.92;3.45;;;;;;;;;;5047207;28;20473;-75
2022/06/15 10:36:51;;;;;;;6.40;3.88;;;;;;;;;;5053002;28;20029;-70
2022/06/15 10:39:25;;;;;;;4.90;3.65;;;;;;;;;;5069092;28;20503;-70
2022/06/15 10:41:52;;;;;;;4.75;3.72;;;;;;;;;;5082352;28;20384;-70
2022/06/15 10:44:28;;;;;;;6.75;3.65;;;;;;;;;;5068315;28;20028;-70
2022/06/15 10:46:58;;;;;;;4.55;3.58;;;;;;;;;;5063553;28;20020;-68
2022/06/15 10:49:24;;;;;;;4.40;3.35;;;;;;;;;;5065540;28;20036;-69
2022/06/15 10:51:51;;;;;;;5.43;3.58;;;;;;;;;;5064681;28;20402;-74
2022/06/15 10:54:17;;;;;;;4.70;3.72;;;;;;;;;;5055546;28;20043;-69
2022/06/15 11:02:32;;;;;;;5.28;4.07;;;;;;;;;;5066458;28;20043;-68
2022/06/15 11:05:12;;;;;;;8.77;7.30;;;;;;;;;;5060436;28;20060;-72
2022/06/15 11:07:57;;;;;;;6.93;5.38;;;;;;;;;;5065158;28;20032;-69
2022/06/15 11:10:47;;;;;;;;;;;;;;;;;;;;;
2022/06/15 11:13:26;;;;;;;3.40;3.10;;;;;;;;;;5053200;28;20074;-72
2022/06/15 11:18:38;;;;;;;4.93;3.17;;;;;;;;;;5058807;28;20415;-74
2022/06/15 11:21:14;;;;;;;3.85;3.42;;;;;;;;;;5065319;28;20024;-69
2022/06/15 11:23:43;;;;;;;4.32;3.60;;;;;;;;;;5073146;28;20036;-74
2022/06/15 11:29:36;;;;;;;3.78;3.40;;;;;;;;;;5060142;28;20035;-77
2022/06/15 11:32:14;;;;;;;3.80;3.50;;;;;;;;;;4979921;28;20034;-74
2022/06/15 11:34:46;;;;;;;5.28;3.78;;;;;;;;;;5058613;28;20044;-69
2022/06/15 11:37:20;;;;;;;3.83;3.53;;;;;;;;;;5061755;28;20066;-76
2022/06/15 11:39:55;;;;;;;5.72;3.95;;;;;;;;;;5059565;28;20400;-71
2022/06/15 11:42:22;;;;;;;4.43;3.65;;;;;;;;;;5061437;28;20021;-74
2022/06/15 11:44:48;;;;;;;4.28;3.42;;;;;;;;;;5061526;28;20055;-72
2022/06/15 11:47:33;;;;;;;4.95;4.15;;;;;;;;;;5061129;28;20024;-70
2022/06/15 11:50:17;;;;;;;5.20;3.60;;;;;;;;;;5061491;28;20119;-78
2022/06/15 11:52:46;;;;;;;4.30;3.80;;;;;;;;;;5060830;28;20063;-75
2022/06/15 11:55:14;;;;;;;6.50;3.42;;;;;;;;;;5059209;28;20043;-71
2022/06/15 11:57:59;;;;;;;4.38;3.65;;;;;;;;;;5060844;28;20426;-74
2022/06/15 12:00:44;;;;;;;4.82;3.75;;;;;;;;;;5060728;28;20050;-77
2022/06/15 12:03:22;;;;;;;4.72;3.40;;;;;;;;;;5047671;28;20028;-76
2022/06/15 12:05:48;;;;;;;4.72;3.72;;;;;;;;;;5060698;28;20031;-70
2022/06/15 12:08:15;;;;;;;6.72;3.92;;;;;;;;;;5059259;28;20028;-70
2022/06/15 12:10:47;;;;;;;4.05;3.65;;;;;;;;;;5060926;28;20463;-70
2022/06/15 12:13:22;;;;;;;5.50;3.78;;;;;;;;;;5058894;28;20024;-71
2022/06/15 12:15:55;;;;;;;3.92;3.63;;;;;;;;;;5058847;28;20499;-70
2022/06/15 12:18:24;;;;;;;5.97;3.78;;;;;;;;;;5061193;28;20028;-74
2022/06/15 12:21:02;;;;;;;3.97;3.63;;;;;;;;;;5060343;28;20059;-77
2022/06/15 12:23:38;;;;;;;4.50;3.92;;;;;;;;;;5062257;28;20028;-70
2022/06/15 12:26:39;;;;;;;3.42;3.20;;;;;;;;;;5060695;28;20741;-69
2022/06/15 12:29:05;;;;;;;4.13;3.72;;;;;;;;;;4973894;28;20034;-69
2022/06/15 12:31:38;;;;;;;4.53;3.95;;;;;;;;;;5040961;28;20442;-69
2022/06/15 12:34:10;;;;;;;5.65;3.58;;;;;;;;;;5057390;28;20107;-70
2022/06/15 12:36:47;;;;;;;3.97;3.58;;;;;;;;;;5055055;28;20032;-69
2022/06/15 12:39:28;;;;;;;5.38;3.55;;;;;;;;;;5052961;28;20044;-73
2022/06/15 12:42:11;;;;;;;3.70;3.40;;;;;;;;;;5058143;28;20117;-69
2022/06/15 12:44:41;;;;;;;4.47;3.70;;;;;;;;;;5061436;28;20122;-69
2022/06/15 12:47:11;;;;;;;5.15;3.45;;;;;;;;;;5060751;28;20056;-69
2022/06/15 12:49:38;;;;;;;4.00;3.40;;;;;;;;;;5059733;28;20055;-69
2022/06/15 12:52:13;;;;;;;3.72;3.20;;;;;;;;;;5056800;28;20074;-69
2022/06/15 12:54:39;;;;;;;3.53;3.22;;;;;;;;;;5056902;28;20731;-69
2022/06/15 12:57:14;;;;;;;3.67;2.83;;;;;;;;;;5061594;28;20434;-69
2022/06/15 12:59:51;;;;;;;4.75;3.22;;;;;;;;;;5061672;28;20025;-70
2022/06/15 13:02:25;;;;;;;3.58;2.95;;;;;;;;;;5061266;28;20251;-69
2022/06/15 13:04:54;;;;;;;4.40;3.22;;;;;;;;;;5063055;28;20371;-69
2022/06/15 13:07:24;;;;;;;4.10;2.90;;;;;;;;;;5064152;28;20496;-69
2022/06/15 13:10:05;;;;;;;3.63;3.25;;;;;;;;;;5062808;28;20024;-68
2022/06/15 13:12:31;;;;;;;;;;;;;;;;;;5062788;28;20086;-69
2022/06/15 13:14:58;;;;;;;4.88;3.10;;;;;;;;;;5062890;28;19974;-70
2022/06/15 13:17:26;;;;;;;3.50;3.20;;;;;;;;;;5064247;28;20015;-70
2022/06/15 13:20:01;;;;;;;4.30;2.95;;;;;;;;;;5062914;28;20533;-70
2022/06/15 13:22:38;;;;;;;3.35;2.78;;;;;;;;;;5064055;28;20013;-69
2022/06/15 13:25:05;;;;;;;5.63;3.50;;;;;;;;;;5060093;28;20025;-69
2022/06/15 13:27:33;;;;;;;6.40;3.20;;;;;;;;;;5061058;28;20044;-69
2022/06/15 13:30:18;;;;;;;4.07;2.85;;;;;;;;;;5060043;28;20051;-70
2022/06/15 13:32:52;;;;;;;5.70;3.17;;;;;;;;;;5059864;28;20043;-69
2022/06/15 13:35:30;;;;;;;4.57;3.38;;;;;;;;;;5058710;28;20036;-69
2022/06/15 13:38:28;;;;;;;3.17;2.88;;;;;;;;;;5066965;28;20035;-70
2022/06/15 13:40:54;;;;;;;4.93;3.10;;;;;;;;;;5073157;28;20047;-69
2022/06/15 13:43:21;;;;;;;3.10;2.80;;;;;;;;;;5068531;28;20032;-69
2022/06/15 13:45:48;;;;;;;3.00;2.70;;;;;;;;;;5071855;28;20016;-71
2022/06/15 13:48:20;;;;;;;3.15;2.95;;;;;;;;;;5069072;28;20013;-70
2022/06/15 13:50:55;;;;;;;3.40;3.10;;;;;;;;;;5070392;28;20079;-69
2022/06/15 13:53:22;;;;;;;4.40;3.22;;;;;;;;;;5070002;28;20585;-70
2022/06/15 13:56:00;;;;;;;3.38;2.90;;;;;;;;;;5070021;28;20103;-69
2022/06/15 13:58:26;;;;;;;4.38;3.00;;;;;;;;;;5068417;28;20035;-69
2022/06/15 14:01:15;;;;;;;3.47;3.17;;;;;;;;;;5069487;28;20034;-70
2022/06/15 14:03:50;;;;;;;3.33;3.03;;;;;;;;;;5068979;28;20099;-69
2022/06/15 14:06:49;;;;;;;5.18;3.10;;;;;;;;;;5072318;28;20043;-69
2022/06/15 14:09:15;;;;;;;4.90;3.50;;;;;;;;;;5011960;28;20135;-69
2022/06/15 14:12:00;;;;;;;5.55;3.20;;;;;;;;;;5072679;28;20028;-70
2022/06/15 14:14:32;;;;;;;3.70;3.30;;;;;;;;;;5068984;28;20036;-69
2022/06/15 14:17:13;;;;;;;4.53;3.17;;;;;;;;;;5069842;28;20793;-69
2022/06/15 14:19:44;;;;;;;3.30;3.00;;;;;;;;;;5070194;28;20028;-70
2022/06/15 14:22:18;;;;;;;3.42;3.13;;;;;;;;;;5061758;28;20021;-74
2022/06/15 14:24:45;;;;;;;6.68;3.38;;;;;;;;;;5044416;28;20054;-70
2022/06/15 14:27:24;;;;;;;3.55;3.25;;;;;;;;;;5059359;28;20025;-69
2022/06/15 14:29:51;;;;;;;5.68;3.47;;;;;;;;;;5058006;28;20025;-69
2022/06/15 14:32:34;;;;;;;4.47;3.40;;;;;;;;;;5060438;28;20181;-69
2022/06/15 14:35:21;;;;;;;3.13;2.90;;;;;;;;;;5047233;28;20027;-69
2022/06/15 14:37:54;;;;;;;4.15;3.38;;;;;;;;;;5042363;28;20032;-69
2022/06/15 14:40:32;;;;;;;3.97;3.22;;;;;;;;;;5059193;28;20040;-70
2022/06/15 14:42:58;;;;;;;6.75;3.10;;;;;;;;;;5060556;28;20483;-72
2022/06/15 14:45:25;;;;;;;4.03;3.40;;;;;;;;;;5060847;28;20021;-70
2022/06/15 14:47:52;;;;;;;4.50;3.17;;;;;;;;;;5060366;28;20040;-73
2022/06/15 14:50:19;;;;;;;6.90;3.50;;;;;;;;;;5062509;28;20017;-69
2022/06/15 14:52:45;;;;;;;7.07;3.55;;;;;;;;;;5063977;28;20055;-70
2022/06/15 14:55:22;;;;;;;4.45;3.30;;;;;;;;;;5063763;28;20040;-69
2022/06/15 14:57:48;;;;;;;4.10;3.47;;;;;;;;;;5064101;28;20020;-69
2022/06/15 15:00:23;;;;;;;4.97;3.05;;;;;;;;;;5062063;28;20020;-69
2022/06/15 15:02:51;;;;;;;4.18;3.00;;;;;;;;;;5063619;28;20093;-69
2022/06/15 15:05:19;;;;;;;4.85;3.15;;;;;;;;;;5063793;28;20372;-69
2022/06/15 15:10:31;;;;;;;3.58;3.25;;;;;;;;;;5063954;28;20035;-70
2022/06/15 15:13:16;;;;;;;3.40;3.10;;;;;;;;;;5063567;28;20028;-69
2022/06/15 15:15:47;;;;;;;3.03;2.72;;;;;;;;;;5063599;28;20047;-69
2022/06/15 15:18:16;;;;;;;4.95;2.72;;;;;;;;;;5063558;28;20028;-70
2022/06/15 15:20:44;;;;;;;4.63;3.25;;;;;;;;;;5063414;28;20031;-69
2022/06/15 15:23:11;;;;;;;4.13;3.10;;;;;;;;;;5061801;28;20452;-73